createdAt,value
2022-11-01T00:01:34.955Z,100404.41
2022-11-01T00:04:01.437Z,100405.41
2022-11-01T00:06:27.879Z,100406.53
2022-11-01T00:08:54.321Z,100398.75
2022-11-01T00:11:20.802Z,100405.75
2022-11-01T00:13:49.136Z,100390.22
2022-11-01T00:16:17.231Z,100392.03
2022-11-01T00:18:43.645Z,100375.56
2022-11-01T00:21:11.127Z,100378.47
2022-11-01T00:23:37.908Z,100380.44
2022-11-01T00:26:04.500Z,100376.31
2022-11-01T00:28:30.935Z,100371.28
2022-11-01T00:30:57.962Z,100363.50
2022-11-01T00:33:24.791Z,100363.63
2022-11-01T00:35:51.930Z,100361.84
2022-11-01T00:38:18.975Z,100346.09
2022-11-01T00:40:45.896Z,100344.44
2022-11-01T00:43:13.136Z,100345.16
2022-11-01T00:45:39.672Z,100353.22
2022-11-01T00:48:06.875Z,100359.44
2022-11-01T00:50:33.289Z,100346.31
2022-11-01T00:52:59.681Z,100352.50
2022-11-01T00:55:26.310Z,100347.16
2022-11-01T00:57:52.854Z,100342.75
2022-11-01T01:00:19.563Z,100340.22
2022-11-01T01:02:46.041Z,100341.16
2022-11-01T01:05:12.723Z,100338.41
2022-11-01T01:07:39.168Z,100331.44
2022-11-01T01:10:07.309Z,100330.59
2022-11-01T01:12:33.769Z,100331.34
2022-11-01T01:15:00.589Z,100340.75
2022-11-01T01:17:29.953Z,100338.78
2022-11-01T01:19:59.390Z,100332.38
2022-11-01T01:22:28.221Z,100339.31
2022-11-01T01:24:54.923Z,100340.88
2022-11-01T01:27:21.314Z,100332.75
2022-11-01T01:29:47.699Z,100332.69
2022-11-01T01:32:20.814Z,100329.84
2022-11-01T01:34:47.749Z,100318.44
2022-11-01T01:37:15.218Z,100325.13
2022-11-01T01:39:41.892Z,100329.56
2022-11-01T01:42:17.356Z,100329.53
2022-11-01T01:44:47.335Z,100326.88
2022-11-01T01:47:35.743Z,100337.28
2022-11-01T01:50:08.217Z,100331.06
2022-11-01T01:52:50.647Z,100317.88
2022-11-01T01:55:22.195Z,100325.88
2022-11-01T01:57:50.230Z,100325.72
2022-11-01T02:00:17.268Z,100325.53
2022-11-01T02:02:44.674Z,100329.75
2022-11-01T02:05:44.061Z,100319.13
2022-11-01T02:08:12.727Z,100317.41
2022-11-01T02:10:39.969Z,100320.91
2022-11-01T02:13:15.810Z,100314.69
2022-11-01T02:15:57.604Z,100321.72
2022-11-01T02:18:34.445Z,100324.38
2022-11-01T02:21:16.086Z,100319.09
2022-11-01T02:24:07.163Z,100324.47
2022-11-01T02:26:58.026Z,100323.94
2022-11-01T02:29:56.040Z,100318.03
2022-11-01T02:32:25.700Z,100309.25
2022-11-01T02:35:00.236Z,100313.63
2022-11-01T02:37:39.264Z,100320.72
2022-11-01T02:40:09.585Z,100309.53
2022-11-01T02:42:46.425Z,100311.31
2022-11-01T02:45:28.950Z,100309.69
2022-11-01T02:47:57.622Z,100316.00
2022-11-01T02:50:27.898Z,100308.16
2022-11-01T02:52:55.139Z,100306.47
2022-11-01T02:55:30.303Z,100304.75
2022-11-01T02:58:27.369Z,100298.81
2022-11-01T03:00:55.609Z,100298.09
2022-11-01T03:03:30.282Z,100302.63
2022-11-01T03:06:07.176Z,100307.06
2022-11-01T03:08:51.814Z,100304.41
2022-11-01T03:11:26.837Z,100311.34
2022-11-01T03:14:03.624Z,100313.06
2022-11-01T03:16:43.486Z,100314.78
2022-11-01T03:19:18.244Z,100313.06
2022-11-01T03:22:11.245Z,100324.41
2022-11-01T03:24:51.383Z,100329.75
2022-11-01T03:27:32.648Z,100330.72
2022-11-01T03:30:05.124Z,100334.28
2022-11-01T03:32:49.400Z,100339.63
2022-11-01T03:35:24.142Z,100335.22
2022-11-01T03:37:54.230Z,100337.06
2022-11-01T03:40:23.278Z,100336.28
2022-11-01T03:42:51.869Z,100338.06
2022-11-01T03:47:56.097Z,100343.19
2022-11-01T03:50:25.371Z,100346.69
2022-11-01T03:52:51.839Z,100355.47
2022-11-01T03:55:19.986Z,100354.59
2022-11-01T03:57:58.142Z,100358.75
2022-11-01T04:00:30.367Z,100362.34
2022-11-01T04:02:58.352Z,100361.34
2022-11-01T04:05:27.950Z,100379.66
2022-11-01T04:07:55.227Z,100374.44
2022-11-01T04:10:23.104Z,100376.22
2022-11-01T04:12:50.768Z,100373.59
2022-11-01T04:15:37.478Z,100370.88
2022-11-01T04:18:22.198Z,100381.44
2022-11-01T04:20:49.092Z,100392.00
2022-11-01T04:23:16.405Z,100390.94
2022-11-01T04:25:45.818Z,100407.63
2022-11-01T04:28:12.610Z,100401.44
2022-11-01T04:30:39.063Z,100405.00
2022-11-01T04:33:05.640Z,100401.53
2022-11-01T04:35:32.124Z,100407.75
2022-11-01T04:37:59.621Z,100422.78
2022-11-01T04:40:26.669Z,100414.72
2022-11-01T04:42:53.440Z,100412.16
2022-11-01T04:45:19.916Z,100428.84
2022-11-01T04:47:52.496Z,100423.56
2022-11-01T04:50:20.290Z,100423.56
2022-11-01T04:52:48.046Z,100428.00
2022-11-01T04:55:14.802Z,100429.00
2022-11-01T04:57:42.631Z,100428.22
2022-11-01T05:00:11.217Z,100428.22
2022-11-01T05:02:39.653Z,100440.47
2022-11-01T05:05:08.106Z,100438.63
2022-11-01T05:07:35.384Z,100433.34
2022-11-01T05:10:02.929Z,100450.03
2022-11-01T05:12:29.333Z,100452.47
2022-11-01T05:14:56.898Z,100441.00
2022-11-01T05:17:23.770Z,100448.91
2022-11-01T05:19:50.354Z,100452.53
2022-11-01T05:22:17.507Z,100461.78
2022-11-01T05:24:44.162Z,100470.22
2022-11-01T05:27:10.590Z,100474.94
2022-11-01T05:29:37.090Z,100470.75
2022-11-01T05:32:03.565Z,100462.78
2022-11-01T05:34:30.139Z,100473.94
2022-11-01T05:36:56.543Z,100491.63
2022-11-01T05:39:22.998Z,100489.03
2022-11-01T05:41:49.450Z,100489.16
2022-11-01T05:44:15.842Z,100495.56
2022-11-01T05:46:42.243Z,100502.25
2022-11-01T05:49:08.668Z,100505.94
2022-11-01T05:51:35.114Z,100501.47
2022-11-01T05:54:01.509Z,100500.41
2022-11-01T05:56:28.563Z,100517.44
2022-11-01T05:58:55.015Z,100511.16
2022-11-01T06:01:21.570Z,100516.44
2022-11-01T06:03:51.086Z,100523.34
2022-11-01T06:06:17.505Z,100533.88
2022-11-01T06:08:43.927Z,100537.22
2022-11-01T06:11:11.310Z,100553.00
2022-11-01T06:13:38.115Z,100551.56
2022-11-01T06:16:05.902Z,100551.78
2022-11-01T06:18:32.865Z,100565.22
2022-11-01T06:20:59.793Z,100571.75
2022-11-01T06:23:26.270Z,100577.91
2022-11-01T06:25:59.776Z,100593.81
2022-11-01T06:28:26.186Z,100614.41
2022-11-01T06:30:52.610Z,100631.63
2022-11-01T06:33:19.304Z,100639.28
2022-11-01T06:35:45.710Z,100641.44
2022-11-01T06:38:12.149Z,100640.22
2022-11-01T06:40:38.568Z,100643.34
2022-11-01T06:43:06.229Z,100655.97
2022-11-01T06:45:33.372Z,100661.41
2022-11-01T06:48:00.037Z,100664.25
2022-11-01T06:50:26.627Z,100656.56
2022-11-01T06:52:57.341Z,100663.72
2022-11-01T06:55:24.739Z,100681.44
2022-11-01T06:57:59.498Z,100711.50
2022-11-01T07:00:28.622Z,100691.59
2022-11-01T07:03:04.394Z,100695.47
2022-11-01T07:05:36.136Z,100693.09
2022-11-01T07:08:06.621Z,100700.22
2022-11-01T07:10:33.567Z,100706.56
2022-11-01T07:13:01.738Z,100714.63
2022-11-01T07:15:29.475Z,100723.66
2022-11-01T07:18:06.854Z,100735.19
2022-11-01T07:20:41.144Z,100730.94
2022-11-01T07:23:14.379Z,100751.19
2022-11-01T07:25:41.495Z,100740.78
2022-11-01T07:28:08.710Z,100753.34
2022-11-01T07:30:35.296Z,100758.75
2022-11-01T07:33:04.170Z,100769.41
2022-11-01T07:35:30.867Z,100766.00
2022-11-01T07:37:59.227Z,100767.88
2022-11-01T07:40:29.608Z,100774.09
2022-11-01T07:42:59.560Z,100786.47
2022-11-01T07:45:29.022Z,100786.41
2022-11-01T07:48:06.836Z,100793.44
2022-11-01T07:50:34.089Z,100798.59
2022-11-01T07:53:19.290Z,100810.81
2022-11-01T07:55:46.547Z,100805.53
2022-11-01T07:58:14.548Z,100810.72
2022-11-01T08:00:43.893Z,100815.94
2022-11-01T08:03:16.041Z,100827.34
2022-11-01T08:05:43.349Z,100820.28
2022-11-01T08:08:10.312Z,100826.44
2022-11-01T08:10:37.934Z,100838.69
2022-11-01T08:13:19.159Z,100826.31
2022-11-01T08:15:46.378Z,100834.19
2022-11-01T08:18:13.490Z,100838.59
2022-11-01T08:20:41.091Z,100836.91
2022-11-01T08:23:08.510Z,100846.63
2022-11-01T08:25:35.251Z,100851.91
2022-11-01T08:28:04.295Z,100845.88
2022-11-01T08:30:30.741Z,100849.50
2022-11-01T08:32:59.694Z,100849.50
2022-11-01T08:35:26.795Z,100852.19
2022-11-01T08:37:54.269Z,100848.81
2022-11-01T08:40:21.110Z,100855.06
2022-11-01T08:42:48.376Z,100859.47
2022-11-01T08:45:15.497Z,100863.00
2022-11-01T08:47:42.370Z,100866.56
2022-11-01T08:50:11.450Z,100870.97
2022-11-01T08:52:38.566Z,100885.84
2022-11-01T08:55:05.731Z,100880.53
2022-11-01T08:57:32.284Z,100879.66
2022-11-01T08:59:58.793Z,100893.69
2022-11-01T09:02:25.907Z,100887.41
2022-11-01T09:04:52.679Z,100891.59
2022-11-01T09:07:19.121Z,100889.00
2022-11-01T09:09:46.551Z,100906.56
2022-11-01T09:12:14.631Z,100899.47
2022-11-01T09:14:41.540Z,100902.03
2022-11-01T09:17:08.000Z,100897.47
2022-11-01T09:19:34.396Z,100900.13
2022-11-01T09:22:00.779Z,100901.81
2022-11-01T09:24:27.206Z,100907.84
2022-11-01T09:26:53.827Z,100909.44
2022-11-01T09:29:21.280Z,100912.81
2022-11-01T09:31:52.512Z,100907.59
2022-11-01T09:34:19.919Z,100922.31
2022-11-01T09:36:47.549Z,100919.63
2022-11-01T09:39:16.341Z,100917.88
2022-11-01T09:41:47.531Z,100917.84
2022-11-01T09:44:22.013Z,100933.34
2022-11-01T09:47:22.345Z,100919.13
2022-11-01T09:50:01.585Z,100920.19
2022-11-01T09:52:28.201Z,100920.13
2022-11-01T09:54:54.627Z,100920.94
2022-11-01T09:57:43.501Z,100917.47
2022-11-01T10:00:16.136Z,100925.09
2022-11-01T10:03:00.626Z,100923.28
2022-11-01T10:05:50.807Z,100924.16
2022-11-01T10:08:46.742Z,100925.88
2022-11-01T10:11:22.387Z,100933.44
2022-11-01T10:14:07.860Z,100934.47
2022-11-01T10:16:43.716Z,100931.66
2022-11-01T10:19:29.976Z,100933.69
2022-11-01T10:22:03.011Z,100932.63
2022-11-01T10:24:38.469Z,100932.31
2022-11-01T10:27:25.285Z,100937.72
2022-11-01T10:30:01.785Z,100934.00
2022-11-01T10:32:31.261Z,100932.22
2022-11-01T10:35:03.164Z,100937.22
2022-11-01T10:37:52.050Z,100930.13
2022-11-01T10:40:36.357Z,100941.47
2022-11-01T10:43:13.730Z,100947.66
2022-11-01T10:45:47.448Z,100953.56
2022-11-01T10:48:30.500Z,100939.44
2022-11-01T10:51:01.152Z,100951.56
2022-11-01T10:53:33.960Z,100949.84
2022-11-01T10:56:08.953Z,100949.81
2022-11-01T10:58:47.205Z,100941.88
2022-11-01T11:01:20.158Z,100937.41
2022-11-01T11:03:51.796Z,100938.84
2022-11-01T11:06:19.155Z,100941.69
2022-11-01T11:08:51.279Z,100945.00
2022-11-01T11:11:22.186Z,100943.03
2022-11-01T11:13:53.691Z,100953.75
2022-11-01T11:16:53.812Z,100936.16
2022-11-01T11:19:29.221Z,100935.97
2022-11-01T11:21:57.021Z,100948.25
2022-11-01T11:24:32.662Z,100944.94
2022-11-01T11:27:01.253Z,100940.25
2022-11-01T11:29:38.481Z,100941.16
2022-11-01T11:32:13.108Z,100945.13
2022-11-01T11:34:41.181Z,100949.34
2022-11-01T11:37:15.047Z,100932.94
2022-11-01T11:39:48.868Z,100944.97
2022-11-01T11:42:23.933Z,100949.38
2022-11-01T11:44:55.651Z,100956.44
2022-11-01T11:47:29.030Z,100946.81
2022-11-01T11:49:58.148Z,100949.16
2022-11-01T11:52:38.526Z,100948.28
2022-11-01T11:55:07.741Z,100947.44
2022-11-01T11:57:34.318Z,100946.44
2022-11-01T12:00:07.501Z,100948.19
2022-11-01T12:02:40.917Z,100948.94
2022-11-01T12:05:15.195Z,100955.94
2022-11-01T12:07:49.002Z,100944.31
2022-11-01T12:10:34.275Z,100944.13
2022-11-01T12:13:02.902Z,100937.06
2022-11-01T12:15:38.424Z,100941.38
2022-11-01T12:18:16.259Z,100937.75
2022-11-01T12:20:44.097Z,100930.47
2022-11-01T12:23:35.016Z,100933.16
2022-11-01T12:26:05.191Z,100944.03
2022-11-01T12:28:39.559Z,100936.91
2022-11-01T12:31:14.796Z,100936.91
2022-11-01T12:33:54.574Z,100937.66
2022-11-01T12:36:29.945Z,100932.78
2022-11-01T12:39:07.716Z,100939.44
2022-11-01T12:41:44.757Z,100927.22
2022-11-01T12:44:33.086Z,100933.84
2022-11-01T12:47:25.498Z,100938.09
2022-11-01T12:49:58.829Z,100948.38
2022-11-01T12:52:42.722Z,100938.94
2022-11-01T12:55:14.246Z,100941.69
2022-11-01T12:57:44.014Z,100936.00
2022-11-01T13:00:15.673Z,100928.91
2022-11-01T13:02:47.956Z,100934.56
2022-11-01T13:05:49.655Z,100937.38
2022-11-01T13:08:43.748Z,100933.09
2022-11-01T13:11:21.964Z,100933.44
2022-11-01T13:13:57.951Z,100936.56
2022-11-01T13:16:43.683Z,100928.28
2022-11-01T13:19:23.594Z,100935.16
2022-11-01T13:21:57.089Z,100938.19
2022-11-01T13:24:39.572Z,100928.84
2022-11-01T13:27:38.980Z,100946.47
2022-11-01T13:30:11.149Z,100954.19
2022-11-01T13:32:41.906Z,100942.81
2022-11-01T13:35:27.151Z,100949.88
2022-11-01T13:38:02.241Z,100942.00
2022-11-01T13:40:40.950Z,100936.91
2022-11-01T13:43:12.586Z,100934.44
2022-11-01T13:46:09.966Z,100934.69
2022-11-01T13:49:17.136Z,100915.56
2022-11-01T13:52:01.300Z,100909.41
2022-11-01T13:54:36.783Z,100918.84
2022-11-01T13:57:13.878Z,100912.56
2022-11-01T13:59:44.412Z,100918.00
2022-11-01T14:02:23.038Z,100922.00
2022-11-01T14:05:12.543Z,100915.56
2022-11-01T14:08:05.365Z,100919.81
2022-11-01T14:10:31.947Z,100910.09
2022-11-01T14:12:59.520Z,100916.19
2022-11-01T14:15:28.151Z,100909.72
2022-11-01T14:17:57.762Z,100922.28
2022-11-01T14:20:33.318Z,100924.34
2022-11-01T14:23:28.671Z,100924.13
2022-11-01T14:26:20.094Z,100925.09
2022-11-01T14:28:48.953Z,100922.69
2022-11-01T14:31:18.955Z,100923.56
2022-11-01T14:33:48.324Z,100915.88
2022-11-01T14:36:15.998Z,100920.50
2022-11-01T14:38:52.849Z,100919.72
2022-11-01T14:41:21.408Z,100922.53
2022-11-01T14:43:51.902Z,100923.50
2022-11-01T14:46:23.490Z,100930.66
2022-11-01T14:49:11.342Z,100930.19
2022-11-01T14:51:52.790Z,100918.00
2022-11-01T14:54:24.387Z,100930.34
2022-11-01T14:56:54.098Z,100931.34
2022-11-01T14:59:23.943Z,100927.25
2022-11-01T15:01:57.065Z,100925.75
2022-11-01T15:04:32.942Z,100944.25
2022-11-01T15:07:00.933Z,100947.75
2022-11-01T15:09:31.909Z,100948.66
2022-11-01T15:12:08.561Z,100945.38
2022-11-01T15:14:40.300Z,100949.16
2022-11-01T16:33:49.568Z,100970.25
2022-11-01T16:36:18.900Z,100972.94
2022-11-01T16:38:46.388Z,100973.00
2022-11-01T16:41:39.655Z,100983.59
2022-11-01T16:44:18.692Z,100991.53
2022-11-01T16:46:45.215Z,100993.38
2022-11-01T16:49:22.658Z,100996.94
2022-11-01T16:51:50.328Z,100999.56
2022-11-01T16:54:16.811Z,100997.94
2022-11-01T16:56:43.159Z,100999.81
2022-11-01T16:59:27.049Z,101005.28
2022-11-01T17:01:58.039Z,101002.72
2022-11-01T17:04:26.888Z,101013.41
2022-11-01T17:06:54.439Z,101005.50
2022-11-01T17:09:22.678Z,101002.06
2022-11-01T17:11:51.704Z,101008.19
2022-11-01T17:14:19.492Z,101008.13
2022-11-01T17:16:47.617Z,101004.69
2022-11-01T17:19:21.430Z,101009.16
2022-11-01T17:21:50.527Z,101018.81
2022-11-01T17:24:20.388Z,101019.78
2022-11-01T17:26:48.494Z,101016.34
2022-11-01T17:29:14.928Z,101023.47
2022-11-01T17:31:41.339Z,101022.56
2022-11-01T17:34:07.825Z,101020.78
2022-11-01T17:36:36.195Z,101022.59
2022-11-01T17:39:04.053Z,101019.28
2022-11-01T17:41:30.481Z,101017.50
2022-11-01T17:43:56.931Z,101015.94
2022-11-01T17:46:25.548Z,101002.88
2022-11-01T17:48:52.120Z,101016.94
2022-11-01T17:51:18.885Z,101015.16
2022-11-01T17:53:45.508Z,101014.34
2022-11-01T17:56:11.938Z,101011.78
2022-11-01T17:58:38.615Z,101018.84
2022-11-01T18:01:05.357Z,101011.00
2022-11-01T18:03:31.837Z,101008.47
2022-11-01T18:05:59.446Z,101009.38
2022-11-01T18:08:27.556Z,101012.97
2022-11-01T18:11:09.064Z,101019.09
2022-11-01T18:13:46.816Z,101013.88
2022-11-01T18:16:38.257Z,101013.06
2022-11-01T18:19:30.816Z,101013.06
2022-11-01T18:22:13.102Z,101012.25
2022-11-01T18:24:52.045Z,101014.91
2022-11-01T18:27:36.344Z,101011.50
2022-11-01T18:30:17.600Z,101012.38
2022-11-01T18:32:56.365Z,101015.06
2022-11-01T18:35:54.010Z,101013.38
2022-11-01T18:38:29.156Z,101016.06
2022-11-01T18:41:01.028Z,101015.19
2022-11-01T18:43:32.782Z,101010.88
2022-11-01T18:48:47.823Z,101007.50
2022-11-01T18:51:24.109Z,101007.56
2022-11-01T18:54:01.734Z,101004.97
2022-11-01T18:56:29.363Z,101005.91
2022-11-01T18:59:00.268Z,101017.34
2022-11-01T19:01:31.426Z,101013.88
2022-11-01T19:04:02.463Z,101012.13
2022-11-01T19:06:32.515Z,101011.25
2022-11-01T19:09:09.647Z,101013.03
2022-11-01T19:11:36.289Z,101007.88
2022-11-01T19:14:03.087Z,101007.03
2022-11-01T19:16:29.557Z,100999.19
2022-11-01T19:18:56.428Z,100999.22
2022-11-01T19:21:23.610Z,101005.38
2022-11-01T19:23:53.907Z,101006.31
2022-11-01T19:26:23.236Z,101005.50
2022-11-01T19:28:52.425Z,101006.41
2022-11-01T19:31:39.683Z,101008.31
2022-11-01T19:34:16.507Z,101001.34
2022-11-01T19:36:46.285Z,101003.09
2022-11-01T19:39:26.275Z,100991.72
2022-11-01T19:41:55.893Z,100996.19
2022-11-01T19:44:24.623Z,101001.44
2022-11-01T19:47:05.602Z,100994.50
2022-11-01T19:49:33.975Z,101001.53
2022-11-01T19:52:09.466Z,101005.06
2022-11-01T19:54:41.728Z,101002.56
2022-11-01T19:57:20.471Z,100998.25
2022-11-01T19:59:48.043Z,101000.94
2022-11-01T20:02:19.373Z,101003.59
2022-11-01T20:04:45.938Z,101001.03
2022-11-01T20:07:16.549Z,100996.81
2022-11-01T20:09:43.176Z,101004.75
2022-11-01T20:12:11.157Z,101001.25
2022-11-01T20:14:38.143Z,101000.47
2022-11-01T20:17:04.925Z,101003.13
2022-11-01T20:19:31.496Z,100997.03
2022-11-01T20:21:58.851Z,100999.69
2022-11-01T20:24:25.371Z,100994.47
2022-11-01T20:26:51.895Z,101012.00
2022-11-01T20:29:18.531Z,101006.00
2022-11-01T20:31:45.032Z,101006.00
2022-11-01T20:34:11.466Z,101007.75
2022-11-01T20:36:38.597Z,101006.09
2022-11-01T20:39:05.815Z,101006.09
2022-11-01T20:41:33.062Z,101011.44
2022-11-01T20:43:59.505Z,101004.44
2022-11-01T20:46:25.924Z,101007.03
2022-11-01T20:48:52.345Z,101011.44
2022-11-01T20:51:18.838Z,101011.44
2022-11-01T20:53:45.233Z,101014.09
2022-11-01T20:56:12.073Z,101006.22
2022-11-01T20:58:41.479Z,101011.44
2022-11-01T21:01:15.746Z,101014.16
2022-11-01T21:03:43.172Z,101022.06
2022-11-01T21:06:17.653Z,101018.59
2022-11-01T21:08:48.219Z,101007.16
2022-11-01T21:11:44.634Z,101012.44
2022-11-01T21:14:18.594Z,101009.78
2022-11-01T21:16:45.090Z,101005.44
2022-11-01T21:19:22.564Z,101007.22
2022-11-01T21:21:56.801Z,101011.63
2022-11-01T21:24:40.364Z,101009.94
2022-11-01T21:27:12.814Z,101013.38
2022-11-01T21:29:42.864Z,101018.59
2022-11-01T21:32:30.588Z,101011.66
2022-11-01T21:34:58.101Z,101018.72
2022-11-01T21:37:28.629Z,101015.25
2022-11-01T21:40:04.283Z,101012.63
2022-11-01T21:42:36.292Z,101009.97
2022-11-01T21:45:23.186Z,101006.47
2022-11-01T21:47:51.387Z,101000.34
2022-11-01T21:50:17.870Z,100994.25
2022-11-01T21:52:44.282Z,100991.63
2022-11-01T21:55:10.693Z,101003.97
2022-11-01T21:57:37.149Z,100992.56
2022-11-01T22:00:04.036Z,100996.97
2022-11-01T22:02:30.617Z,100996.09
2022-11-01T22:04:57.207Z,100996.16
2022-11-01T22:07:23.641Z,100990.91
2022-11-01T22:09:50.070Z,100990.06
2022-11-01T22:12:16.490Z,100989.19
2022-11-01T22:14:42.884Z,100981.34
2022-11-01T22:17:09.286Z,100993.59
2022-11-01T22:19:35.731Z,100986.56
2022-11-01T22:22:02.255Z,100997.03
2022-11-01T22:24:29.554Z,100983.88
2022-11-01T22:26:56.017Z,100982.97
2022-11-01T22:29:22.419Z,100970.72
2022-11-01T22:31:48.874Z,100965.44
2022-11-01T22:34:17.317Z,100969.81
2022-11-01T22:36:43.758Z,100959.31
2022-11-01T22:39:18.277Z,100959.31
2022-11-01T22:41:44.727Z,100961.09
2022-11-01T22:44:35.557Z,100947.94
2022-11-01T22:47:03.529Z,100954.03
2022-11-01T22:49:35.920Z,100953.97
2022-11-01T22:52:16.709Z,100950.41
2022-11-01T22:54:47.453Z,100942.47
2022-11-01T22:57:23.405Z,100934.50
2022-11-01T23:00:00.017Z,100934.41
2022-11-01T23:02:30.847Z,100933.56
2022-11-01T23:05:06.610Z,100944.91
2022-11-01T23:08:10.488Z,100940.44
2022-11-01T23:10:37.086Z,100934.28
2022-11-01T23:13:31.361Z,100939.50
2022-11-01T23:16:03.122Z,100928.09
2022-11-01T23:18:32.807Z,100925.38
2022-11-01T23:21:01.879Z,100930.59
2022-11-01T23:23:28.786Z,100928.78
2022-11-01T23:25:59.220Z,100934.91
2022-11-01T23:28:26.891Z,100932.22
2022-11-01T23:30:54.858Z,100935.63
2022-11-01T23:33:23.181Z,100928.63
2022-11-01T23:35:55.665Z,100925.94
2022-11-01T23:38:35.553Z,100927.66
2022-11-01T23:41:02.603Z,100929.41
2022-11-01T23:43:40.110Z,100928.44
2022-11-01T23:46:07.681Z,100924.88
2022-11-01T23:48:34.214Z,100917.91
2022-11-01T23:51:00.698Z,100920.53
2022-11-01T23:53:35.447Z,100920.53
2022-11-01T23:56:09.463Z,100912.66
2022-11-01T23:58:37.414Z,100907.44
